createdAt,value
2023-05-07T00:00:30.101Z,75.40
2023-05-07T00:01:30.271Z,74.79
2023-05-07T00:02:30.551Z,75.20
2023-05-07T00:03:30.698Z,75.71
2023-05-07T00:04:30.812Z,75.51
2023-05-07T00:05:30.965Z,74.79
2023-05-07T00:06:31.148Z,74.18
2023-05-07T00:07:31.307Z,74.99
2023-05-07T00:08:31.511Z,74.28
2023-05-07T00:09:31.670Z,75.20
2023-05-07T00:10:31.839Z,74.28
2023-05-07T00:11:32.020Z,75.10
2023-05-07T00:12:32.178Z,74.99
2023-05-07T00:13:32.346Z,74.18
2023-05-07T00:14:32.524Z,74.69
2023-05-07T00:15:32.674Z,73.97
2023-05-07T00:16:32.944Z,74.28
2023-05-07T00:17:33.076Z,74.18
2023-05-07T00:18:33.190Z,74.28
2023-05-07T00:19:33.350Z,74.38
2023-05-07T00:20:35.496Z,74.08
2023-05-07T00:21:33.729Z,73.88
2023-05-07T00:22:33.876Z,74.08
2023-05-07T00:23:34.184Z,74.15
2023-05-07T00:24:34.232Z,74.35
2023-05-07T00:25:34.399Z,73.94
2023-05-07T00:26:34.574Z,73.64
2023-05-07T00:27:34.790Z,73.26
2023-05-07T00:28:34.926Z,73.64
2023-05-07T00:29:35.110Z,73.57
2023-05-07T00:30:35.282Z,73.26
2023-05-07T00:31:35.485Z,73.36
2023-05-07T00:32:35.649Z,73.57
2023-05-07T00:33:35.793Z,73.47
2023-05-07T00:34:35.966Z,73.88
2023-05-07T00:35:36.140Z,73.67
2023-05-07T00:36:36.312Z,73.88
2023-05-07T00:37:36.510Z,73.47
2023-05-07T00:38:36.693Z,73.43
2023-05-07T00:39:36.875Z,73.06
2023-05-07T00:40:37.030Z,73.54
2023-05-07T00:41:37.212Z,73.54
2023-05-07T00:42:37.385Z,73.84
2023-05-07T00:43:37.577Z,73.54
2023-05-07T00:44:37.735Z,72.72
2023-05-07T00:45:38.004Z,73.23
2023-05-07T00:46:38.174Z,73.33
2023-05-07T00:47:38.315Z,73.33
2023-05-07T00:48:38.456Z,73.13
2023-05-07T00:49:38.634Z,73.02
2023-05-07T00:50:38.816Z,73.06
2023-05-07T00:51:39.038Z,73.43
2023-05-07T00:52:39.169Z,73.54
2023-05-07T00:53:39.347Z,73.23
2023-05-07T00:54:39.523Z,73.23
2023-05-07T00:55:39.699Z,72.82
2023-05-07T00:56:39.881Z,73.23
2023-05-07T00:57:40.059Z,73.33
2023-05-07T00:58:40.231Z,73.23
2023-05-07T00:59:40.401Z,73.23
2023-05-07T01:00:40.557Z,73.64
2023-05-07T01:01:40.812Z,73.43
2023-05-07T01:02:40.926Z,72.92
2023-05-07T01:03:41.082Z,72.82
2023-05-07T01:04:41.260Z,72.92
2023-05-07T01:05:41.415Z,73.23
2023-05-07T01:06:41.573Z,73.64
2023-05-07T01:07:41.743Z,73.02
2023-05-07T01:08:41.926Z,73.02
2023-05-07T01:09:42.136Z,72.92
2023-05-07T01:10:42.259Z,73.02
2023-05-07T01:11:42.452Z,73.02
2023-05-07T01:12:42.684Z,73.23
2023-05-07T01:13:42.812Z,72.82
2023-05-07T01:14:42.995Z,73.23
2023-05-07T01:15:43.168Z,73.30
2023-05-07T01:16:43.392Z,73.40
2023-05-07T01:17:43.586Z,73.10
2023-05-07T01:18:43.709Z,72.82
2023-05-07T01:19:43.877Z,72.92
2023-05-07T01:20:44.066Z,72.62
2023-05-07T01:21:44.234Z,72.52
2023-05-07T01:22:44.403Z,72.41
2023-05-07T01:23:44.653Z,72.62
2023-05-07T01:24:44.772Z,72.41
2023-05-07T01:25:44.930Z,72.11
2023-05-07T01:26:45.128Z,72.72
2023-05-07T01:27:45.281Z,72.82
2023-05-07T01:28:45.456Z,72.52
2023-05-07T01:29:45.627Z,72.62
2023-05-07T01:30:45.802Z,73.13
2023-05-07T01:31:46.035Z,73.13
2023-05-07T01:32:46.251Z,72.72
2023-05-07T01:33:46.351Z,72.82
2023-05-07T01:34:46.473Z,72.52
2023-05-07T01:35:46.659Z,72.62
2023-05-07T01:36:46.808Z,72.28
2023-05-07T01:37:47.002Z,71.97
2023-05-07T01:38:47.161Z,72.28
2023-05-07T01:39:47.341Z,71.87
2023-05-07T01:40:47.492Z,72.48
2023-05-07T01:41:47.706Z,72.21
2023-05-07T01:42:47.853Z,72.31
2023-05-07T01:43:48.029Z,72.82
2023-05-07T01:44:48.189Z,72.92
2023-05-07T01:45:48.388Z,72.38
2023-05-07T01:46:48.565Z,71.80
2023-05-07T01:47:48.755Z,72.41
2023-05-07T01:48:48.889Z,72.38
2023-05-07T01:49:49.053Z,72.72
2023-05-07T01:50:49.233Z,72.62
2023-05-07T01:51:49.451Z,72.72
2023-05-07T01:52:49.575Z,72.31
2023-05-07T01:53:49.740Z,72.69
2023-05-07T01:54:49.910Z,72.41
2023-05-07T01:55:50.123Z,72.41
2023-05-07T01:56:50.250Z,72.38
2023-05-07T01:57:50.417Z,72.11
2023-05-07T01:58:50.586Z,72.11
2023-05-07T01:59:50.748Z,72.01
2023-05-07T02:00:50.942Z,72.11
2023-05-07T02:01:51.162Z,71.91
2023-05-07T02:02:51.380Z,72.01
2023-05-07T02:03:51.552Z,71.70
2023-05-07T02:04:51.744Z,71.80
2023-05-07T02:05:51.811Z,72.01
2023-05-07T02:06:51.977Z,72.31
2023-05-07T02:07:52.150Z,72.31
2023-05-07T02:08:52.313Z,72.01
2023-05-07T02:09:52.489Z,71.91
2023-05-07T02:10:52.683Z,72.21
2023-05-07T02:11:52.861Z,72.31
2023-05-07T02:12:53.043Z,72.41
2023-05-07T02:13:53.182Z,72.01
2023-05-07T02:14:53.376Z,71.60
2023-05-07T02:15:53.565Z,72.11
2023-05-07T02:16:53.807Z,73.02
2023-05-07T02:17:53.924Z,72.11
2023-05-07T02:18:54.081Z,71.80
2023-05-07T02:19:54.270Z,71.80
2023-05-07T02:20:54.449Z,71.70
2023-05-07T02:21:54.614Z,72.01
2023-05-07T02:22:54.786Z,72.52
2023-05-07T02:23:54.966Z,72.41
2023-05-07T02:24:55.137Z,71.91
2023-05-07T02:25:55.331Z,72.31
2023-05-07T02:26:55.533Z,72.41
2023-05-07T02:27:55.687Z,71.70
2023-05-07T02:28:55.842Z,71.39
2023-05-07T02:29:56.003Z,71.39
2023-05-07T02:30:56.205Z,71.80
2023-05-07T02:31:56.460Z,71.80
2023-05-07T02:32:56.596Z,72.21
2023-05-07T02:33:56.734Z,72.01
2023-05-07T02:34:56.900Z,71.70
2023-05-07T02:35:57.061Z,72.52
2023-05-07T02:36:57.217Z,71.60
2023-05-07T02:37:57.398Z,71.70
2023-05-07T02:38:57.576Z,71.60
2023-05-07T02:39:57.764Z,71.70
2023-05-07T02:40:57.919Z,71.91
2023-05-07T02:41:58.093Z,72.01
2023-05-07T02:42:58.271Z,71.80
2023-05-07T02:43:58.437Z,71.60
2023-05-07T02:44:58.630Z,71.80
2023-05-07T02:45:58.859Z,71.80
2023-05-07T02:46:58.956Z,71.33
2023-05-07T02:47:59.176Z,71.02
2023-05-07T02:48:59.309Z,70.51
2023-05-07T02:49:59.467Z,72.14
2023-05-07T02:50:59.633Z,71.02
2023-05-07T02:51:59.821Z,71.23
2023-05-07T02:53:00.000Z,71.84
2023-05-07T02:54:00.185Z,71.63
2023-05-07T02:55:00.331Z,71.33
2023-05-07T02:56:00.509Z,71.63
2023-05-07T02:57:00.679Z,71.53
2023-05-07T02:58:00.869Z,71.23
2023-05-07T02:59:01.040Z,70.61
2023-05-07T03:00:01.197Z,70.31
2023-05-07T03:01:01.421Z,70.82
2023-05-07T03:02:01.533Z,70.92
2023-05-07T03:03:01.756Z,71.12
2023-05-07T03:04:01.914Z,70.61
2023-05-07T03:05:02.070Z,70.31
2023-05-07T03:06:02.252Z,70.31
2023-05-07T03:07:02.443Z,70.92
2023-05-07T03:08:02.635Z,71.23
2023-05-07T03:09:02.806Z,71.12
2023-05-07T03:10:02.956Z,71.50
2023-05-07T03:11:03.148Z,70.78
2023-05-07T03:12:03.319Z,70.58
2023-05-07T03:13:03.546Z,70.58
2023-05-07T03:14:03.685Z,70.89
2023-05-07T03:15:03.859Z,70.61
2023-05-07T03:16:04.091Z,70.92
2023-05-07T03:17:04.217Z,71.02
2023-05-07T03:18:04.459Z,70.82
2023-05-07T03:19:04.654Z,70.72
2023-05-07T03:20:04.766Z,71.12
2023-05-07T03:21:05.002Z,70.89
2023-05-07T03:22:05.083Z,71.23
2023-05-07T03:23:05.223Z,71.53
2023-05-07T03:24:05.421Z,71.43
2023-05-07T03:25:05.608Z,71.73
2023-05-07T03:26:05.768Z,71.63
2023-05-07T03:27:05.915Z,71.53
2023-05-07T03:28:06.105Z,71.91
2023-05-07T03:29:06.282Z,72.21
2023-05-07T03:30:06.455Z,71.02
2023-05-07T03:31:06.639Z,70.82
2023-05-07T03:32:06.854Z,71.33
2023-05-07T03:33:07.032Z,71.53
2023-05-07T03:34:07.136Z,71.02
2023-05-07T03:35:07.338Z,71.33
2023-05-07T03:36:07.591Z,71.53
2023-05-07T03:37:07.676Z,71.02
2023-05-07T03:38:07.860Z,71.02
2023-05-07T03:39:08.068Z,71.43
2023-05-07T03:40:08.322Z,70.10
2023-05-07T03:41:08.388Z,70.41
2023-05-07T03:42:08.529Z,70.82
2023-05-07T03:43:08.744Z,70.61
2023-05-07T03:44:08.930Z,70.31
2023-05-07T03:45:09.083Z,70.82
2023-05-07T03:46:09.256Z,70.41
2023-05-07T03:47:09.423Z,70.61
2023-05-07T03:48:09.624Z,71.33
2023-05-07T03:49:09.739Z,70.51
2023-05-07T03:50:10.136Z,70.51
2023-05-07T03:51:10.110Z,71.12
2023-05-07T03:52:10.244Z,70.92
2023-05-07T03:53:10.436Z,70.72
2023-05-07T03:54:10.564Z,71.43
2023-05-07T03:55:10.789Z,71.02
2023-05-07T03:56:10.930Z,71.12
2023-05-07T03:57:11.104Z,70.41
2023-05-07T03:58:11.251Z,70.51
2023-05-07T03:59:11.423Z,70.92
2023-05-07T04:00:11.882Z,70.31
2023-05-07T04:01:11.781Z,70.72
2023-05-07T04:02:11.964Z,70.82
2023-05-07T04:03:12.193Z,70.61
2023-05-07T04:04:12.363Z,70.51
2023-05-07T04:05:12.443Z,70.41
2023-05-07T04:06:12.620Z,71.02
2023-05-07T04:07:12.803Z,70.51
2023-05-07T04:08:12.970Z,70.21
2023-05-07T04:09:13.178Z,70.51
2023-05-07T04:10:13.476Z,71.02
2023-05-07T04:11:13.541Z,70.92
2023-05-07T04:12:13.758Z,70.61
2023-05-07T04:13:13.915Z,70.92
2023-05-07T04:14:14.026Z,70.51
2023-05-07T04:15:14.222Z,70.72
2023-05-07T04:16:14.401Z,70.21
2023-05-07T04:17:14.585Z,70.00
2023-05-07T04:18:14.733Z,70.61
2023-05-07T04:19:14.911Z,70.51
2023-05-07T04:20:15.118Z,70.72
2023-05-07T04:21:15.288Z,71.02
2023-05-07T04:22:15.426Z,70.61
2023-05-07T04:23:15.625Z,70.72
2023-05-07T04:24:15.829Z,71.12
2023-05-07T04:25:16.023Z,71.53
2023-05-07T04:26:16.199Z,71.50
2023-05-07T04:27:16.354Z,71.39
2023-05-07T04:28:16.493Z,71.19
2023-05-07T04:29:16.688Z,70.89
2023-05-07T04:30:16.870Z,70.38
2023-05-07T04:31:17.072Z,71.09
2023-05-07T04:32:17.194Z,71.70
2023-05-07T04:33:17.380Z,70.07
2023-05-07T04:34:17.544Z,70.48
2023-05-07T04:35:17.708Z,70.38
2023-05-07T04:36:17.894Z,70.38
2023-05-07T04:37:18.070Z,70.48
2023-05-07T04:38:18.227Z,70.38
2023-05-07T04:39:18.407Z,70.48
2023-05-07T04:40:18.561Z,70.38
2023-05-07T04:41:18.741Z,70.68
2023-05-07T04:42:18.940Z,70.17
2023-05-07T04:43:19.089Z,70.07
2023-05-07T04:44:19.261Z,69.26
2023-05-07T04:45:19.426Z,69.76
2023-05-07T04:46:19.662Z,70.07
2023-05-07T04:47:19.807Z,69.56
2023-05-07T04:48:19.971Z,69.87
2023-05-07T04:49:20.140Z,69.97
2023-05-07T04:50:20.330Z,69.56
2023-05-07T04:51:20.474Z,69.56
2023-05-07T04:52:20.658Z,69.15
2023-05-07T04:53:20.832Z,69.15
2023-05-07T04:54:20.988Z,69.15
2023-05-07T04:55:21.188Z,68.98
2023-05-07T04:56:21.352Z,69.29
2023-05-07T04:57:21.530Z,68.85
2023-05-07T04:58:21.698Z,68.34
2023-05-07T04:59:21.852Z,68.95
2023-05-07T05:00:22.030Z,69.36
2023-05-07T05:01:22.258Z,68.85
2023-05-07T05:02:22.456Z,68.34
2023-05-07T05:03:22.724Z,68.95
2023-05-07T05:04:22.749Z,69.26
2023-05-07T05:05:22.893Z,69.36
2023-05-07T05:06:23.072Z,69.15
2023-05-07T05:07:23.255Z,69.56
2023-05-07T05:08:23.436Z,69.46
2023-05-07T05:09:23.587Z,69.06
2023-05-07T05:10:24.814Z,68.54
2023-05-07T05:11:23.948Z,68.75
2023-05-07T05:12:24.118Z,68.54
2023-05-07T05:13:24.327Z,68.75
2023-05-07T05:14:24.424Z,68.95
2023-05-07T05:15:24.604Z,67.83
2023-05-07T05:16:24.859Z,68.04
2023-05-07T05:17:25.064Z,67.93
2023-05-07T05:18:25.153Z,68.13
2023-05-07T05:19:25.349Z,67.83
2023-05-07T05:20:25.518Z,67.93
2023-05-07T05:21:25.827Z,68.13
2023-05-07T05:22:25.860Z,67.63
2023-05-07T05:23:26.059Z,67.52
2023-05-07T05:24:26.240Z,68.24
2023-05-07T05:25:26.416Z,67.73
2023-05-07T05:26:26.610Z,67.32
2023-05-07T05:27:26.789Z,68.13
2023-05-07T05:28:26.967Z,68.92
2023-05-07T05:29:27.150Z,68.51
2023-05-07T05:30:27.337Z,68.10
2023-05-07T05:31:27.526Z,67.69
2023-05-07T05:32:27.752Z,67.80
2023-05-07T05:33:27.947Z,67.39
2023-05-07T05:34:28.016Z,68.10
2023-05-07T05:35:28.204Z,67.19
2023-05-07T05:36:28.358Z,67.19
2023-05-07T05:37:28.526Z,66.96
2023-05-07T05:38:28.724Z,66.96
2023-05-07T05:39:28.915Z,67.26
2023-05-07T05:40:29.121Z,66.44
2023-05-07T05:41:29.255Z,66.14
2023-05-07T05:42:29.424Z,66.75
2023-05-07T05:43:29.605Z,67.16
2023-05-07T05:44:29.804Z,66.24
2023-05-07T05:45:29.993Z,66.14
2023-05-07T05:46:30.162Z,66.55
2023-05-07T05:47:30.331Z,66.35
2023-05-07T05:48:30.492Z,66.65
2023-05-07T05:49:30.704Z,66.24
2023-05-07T05:50:30.986Z,66.14
2023-05-07T05:51:31.034Z,66.04
2023-05-07T05:52:31.200Z,66.44
2023-05-07T05:53:31.395Z,66.35
2023-05-07T05:54:31.592Z,66.52
2023-05-07T05:55:31.735Z,66.75
2023-05-07T05:56:31.907Z,66.65
2023-05-07T05:57:32.089Z,66.85
2023-05-07T05:58:32.256Z,66.31
2023-05-07T05:59:32.533Z,66.24
2023-05-07T06:00:32.661Z,65.83
2023-05-07T06:01:32.840Z,66.24
2023-05-07T06:02:33.032Z,65.63
2023-05-07T06:03:33.167Z,66.04
2023-05-07T06:04:33.322Z,65.80
2023-05-07T06:05:33.494Z,65.50
2023-05-07T06:06:33.685Z,65.60
2023-05-07T06:07:33.869Z,65.60
2023-05-07T06:08:34.058Z,66.28
2023-05-07T06:09:34.217Z,66.58
2023-05-07T06:10:34.400Z,65.94
2023-05-07T06:11:34.613Z,65.13
2023-05-07T06:12:34.950Z,64.42
2023-05-07T06:13:34.951Z,64.73
2023-05-07T06:14:35.122Z,63.88
2023-05-07T06:15:35.293Z,63.48
2023-05-07T06:16:35.510Z,63.37
2023-05-07T06:17:35.745Z,63.28
2023-05-07T06:18:35.837Z,63.14
2023-05-07T06:19:36.019Z,63.65
2023-05-07T06:20:36.182Z,63.65
2023-05-07T06:21:36.369Z,62.81
2023-05-07T06:22:36.544Z,62.51
2023-05-07T06:23:36.684Z,61.59
2023-05-07T06:24:36.872Z,62.30
2023-05-07T06:25:37.049Z,62.48
2023-05-07T06:26:37.245Z,61.56
2023-05-07T06:27:37.423Z,61.53
2023-05-07T06:28:37.602Z,61.00
2023-05-07T06:29:37.758Z,60.46
2023-05-07T06:30:37.931Z,61.17
2023-05-07T06:31:38.157Z,59.83
2023-05-07T06:32:38.326Z,59.32
2023-05-07T06:33:38.472Z,58.92
2023-05-07T06:34:38.649Z,58.69
2023-05-07T06:35:38.821Z,58.28
2023-05-07T06:36:38.978Z,58.36
2023-05-07T06:37:39.132Z,59.06
2023-05-07T06:38:39.313Z,58.23
2023-05-07T06:39:39.498Z,56.85
2023-05-07T06:40:39.683Z,56.35
2023-05-07T06:41:39.867Z,55.82
2023-05-07T06:42:40.033Z,54.99
2023-05-07T06:43:40.206Z,54.86
2023-05-07T06:44:40.359Z,53.42
2023-05-07T06:45:40.581Z,53.22
2023-05-07T06:46:40.819Z,53.55
2023-05-07T06:47:40.938Z,53.75
2023-05-07T06:48:41.097Z,53.98
2023-05-07T06:49:41.276Z,54.21
2023-05-07T06:50:41.456Z,54.91
2023-05-07T06:51:41.629Z,55.24
2023-05-07T06:52:41.802Z,55.74
2023-05-07T06:53:42.039Z,56.56
2023-05-07T06:54:42.179Z,55.74
2023-05-07T06:55:42.353Z,54.76
2023-05-07T06:56:42.510Z,55.16
2023-05-07T06:57:42.701Z,56.40
2023-05-07T06:58:42.874Z,56.27
2023-05-07T06:59:43.048Z,56.58
2023-05-07T07:00:43.212Z,56.10
2023-05-07T07:01:43.441Z,56.81
2023-05-07T07:02:43.568Z,56.10
2023-05-07T07:03:43.703Z,55.27
2023-05-07T07:04:43.916Z,55.67
2023-05-07T07:05:44.068Z,55.16
2023-05-07T07:06:44.237Z,55.67
2023-05-07T07:07:44.417Z,55.04
2023-05-07T07:08:44.591Z,55.24
2023-05-07T07:09:44.768Z,55.44
2023-05-07T07:10:44.952Z,54.53
2023-05-07T07:11:45.140Z,53.93
2023-05-07T07:12:45.348Z,54.43
2023-05-07T07:13:45.478Z,55.65
2023-05-07T07:14:45.645Z,55.54
2023-05-07T07:15:45.834Z,55.94
2023-05-07T07:16:45.968Z,55.04
2023-05-07T07:17:46.217Z,55.57
2023-05-07T07:18:46.338Z,55.87
2023-05-07T07:19:46.521Z,57.39
2023-05-07T07:20:46.720Z,55.98
2023-05-07T07:21:46.962Z,55.87
2023-05-07T07:22:47.058Z,55.27
2023-05-07T07:23:47.227Z,55.49
2023-05-07T07:24:47.410Z,55.69
2023-05-07T07:25:47.596Z,55.19
2023-05-07T07:26:47.722Z,54.76
2023-05-07T07:27:47.914Z,55.19
2023-05-07T07:28:48.054Z,55.60
2023-05-07T07:29:48.239Z,56.10
2023-05-07T07:30:48.396Z,56.20
2023-05-07T07:31:48.707Z,56.73
2023-05-07T07:32:48.774Z,57.54
2023-05-07T07:33:49.670Z,57.75
2023-05-07T07:34:49.097Z,57.52
2023-05-07T07:35:49.258Z,56.61
2023-05-07T07:36:49.443Z,55.90
2023-05-07T07:37:49.605Z,55.40
2023-05-07T07:38:49.767Z,56.02
2023-05-07T07:39:49.983Z,56.53
2023-05-07T07:40:50.120Z,56.63
2023-05-07T07:41:50.279Z,56.76
2023-05-07T07:42:50.439Z,56.94
2023-05-07T07:43:50.636Z,57.04
2023-05-07T07:44:50.799Z,56.51
2023-05-07T07:45:51.070Z,56.10
2023-05-07T07:46:51.149Z,56.58
2023-05-07T07:47:51.370Z,56.05
2023-05-07T07:48:51.507Z,55.85
2023-05-07T07:49:51.667Z,55.01
2023-05-07T07:50:51.856Z,54.51
2023-05-07T07:51:52.033Z,55.21
2023-05-07T07:52:52.188Z,54.91
2023-05-07T07:53:52.364Z,54.91
2023-05-07T07:54:52.528Z,54.48
2023-05-07T07:55:54.457Z,54.28
2023-05-07T07:56:53.869Z,53.47
2023-05-07T07:57:53.040Z,53.05
2023-05-07T07:58:53.216Z,52.74
2023-05-07T07:59:53.402Z,53.25
2023-05-07T08:00:53.567Z,52.94
2023-05-07T08:01:55.501Z,52.94
2023-05-07T08:02:54.031Z,52.49
2023-05-07T08:03:54.151Z,52.24
2023-05-07T08:04:54.253Z,51.21
2023-05-07T08:05:54.408Z,51.29
2023-05-07T08:06:54.558Z,49.98
2023-05-07T08:07:54.722Z,51.59
2023-05-07T08:08:54.892Z,51.49
2023-05-07T08:09:55.061Z,50.60
2023-05-07T08:10:55.245Z,49.60
2023-05-07T08:11:55.412Z,50.51
2023-05-07T08:12:55.605Z,51.01
2023-05-07T08:13:55.760Z,51.31
2023-05-07T08:14:55.947Z,50.48
2023-05-07T08:15:56.089Z,49.98
2023-05-07T08:16:56.309Z,50.18
2023-05-07T08:17:56.462Z,49.77
2023-05-07T08:18:56.610Z,49.77
2023-05-07T08:19:56.820Z,50.56
2023-05-07T08:20:56.954Z,49.85
2023-05-07T08:21:57.124Z,49.55
2023-05-07T08:22:57.335Z,49.13
2023-05-07T08:23:57.462Z,48.35
2023-05-07T08:24:57.634Z,48.85
2023-05-07T08:25:57.824Z,49.18
2023-05-07T08:26:57.965Z,49.18
2023-05-07T08:27:58.157Z,49.48
2023-05-07T08:28:58.304Z,49.48
2023-05-07T08:29:58.461Z,49.18
2023-05-07T08:30:58.736Z,49.57
2023-05-07T08:31:58.815Z,49.98
2023-05-07T08:32:59.026Z,48.77
2023-05-07T08:33:59.182Z,48.77
2023-05-07T08:34:59.343Z,49.85
2023-05-07T08:35:59.520Z,48.55
2023-05-07T08:36:59.719Z,48.02
2023-05-07T08:37:59.878Z,47.62
2023-05-07T08:39:00.062Z,48.22
2023-05-07T08:40:00.247Z,47.72
2023-05-07T08:41:00.450Z,48.22
2023-05-07T08:42:00.593Z,48.38
2023-05-07T08:43:00.751Z,46.33
2023-05-07T08:44:00.940Z,44.96
2023-05-07T08:45:01.130Z,45.54
2023-05-07T08:46:01.293Z,43.37
2023-05-07T08:47:01.483Z,43.51
2023-05-07T08:48:01.660Z,41.69
2023-05-07T08:49:01.805Z,40.84
2023-05-07T08:50:01.956Z,39.83
2023-05-07T08:51:02.154Z,41.00
2023-05-07T08:52:02.332Z,38.87
2023-05-07T08:53:02.483Z,38.81
2023-05-07T08:54:02.659Z,37.59
2023-05-07T08:55:02.861Z,37.96
2023-05-07T08:56:03.088Z,36.40
2023-05-07T08:57:03.179Z,37.87
2023-05-07T08:58:03.339Z,37.93
2023-05-07T08:59:03.519Z,34.71
2023-05-07T09:00:03.678Z,33.73
2023-05-07T09:01:03.852Z,34.05
2023-05-07T09:02:04.053Z,34.53
2023-05-07T09:03:04.245Z,34.34
2023-05-07T09:04:04.394Z,36.24
2023-05-07T09:05:04.558Z,35.01
2023-05-07T09:06:04.696Z,35.95
2023-05-07T09:07:04.878Z,37.48
2023-05-07T09:08:05.030Z,37.41
2023-05-07T09:09:05.228Z,38.37
2023-05-07T09:10:05.456Z,39.78
2023-05-07T09:11:05.586Z,40.00
2023-05-07T09:12:05.750Z,39.92
2023-05-07T09:13:05.998Z,40.32
2023-05-07T09:14:07.452Z,40.72
2023-05-07T09:15:06.302Z,41.19
2023-05-07T09:16:06.536Z,39.14
2023-05-07T09:17:06.686Z,38.29
2023-05-07T09:18:06.871Z,37.32
2023-05-07T09:19:07.020Z,37.37
2023-05-07T09:20:09.368Z,35.17
2023-05-07T09:21:07.335Z,34.74
2023-05-07T09:22:07.515Z,35.16
2023-05-07T09:23:07.697Z,35.09
2023-05-07T09:24:07.880Z,35.11
2023-05-07T09:25:08.062Z,35.77
2023-05-07T09:26:09.671Z,35.50
2023-05-07T09:27:08.367Z,32.85
2023-05-07T09:28:08.556Z,31.82
2023-05-07T09:29:08.747Z,28.83
2023-05-07T09:30:08.955Z,29.82
2023-05-07T09:31:09.163Z,30.24
2023-05-07T09:32:09.340Z,30.76
2023-05-07T09:33:09.548Z,32.68
2023-05-07T09:34:09.647Z,32.40
2023-05-07T09:35:10.024Z,31.93
2023-05-07T09:36:10.056Z,34.10
2023-05-07T09:37:10.182Z,32.21
2023-05-07T09:38:10.373Z,32.21
2023-05-07T09:39:10.566Z,32.64
2023-05-07T09:40:10.720Z,33.39
2023-05-07T09:41:10.904Z,35.11
2023-05-07T09:42:11.105Z,36.53
2023-05-07T09:43:11.258Z,36.07
2023-05-07T09:44:11.444Z,37.18
2023-05-07T09:45:11.845Z,37.12
2023-05-07T09:46:11.848Z,37.93
2023-05-07T09:47:11.956Z,38.46
2023-05-07T09:48:12.138Z,39.28
2023-05-07T09:49:12.336Z,39.86
2023-05-07T09:50:12.494Z,39.39
2023-05-07T09:51:12.677Z,38.26
2023-05-07T09:52:12.840Z,37.26
2023-05-07T09:53:13.032Z,37.96
2023-05-07T09:54:13.199Z,37.70
2023-05-07T09:55:13.590Z,35.42
2023-05-07T09:56:13.531Z,36.33
2023-05-07T09:57:13.718Z,36.66
2023-05-07T09:58:13.880Z,37.70
2023-05-07T09:59:14.101Z,37.63
2023-05-07T10:00:14.226Z,38.46
2023-05-07T10:01:14.454Z,39.90
2023-05-07T10:02:14.609Z,39.64
2023-05-07T10:03:14.815Z,40.56
2023-05-07T10:04:14.928Z,41.30
2023-05-07T10:05:15.095Z,41.31
2023-05-07T10:06:15.259Z,41.91
2023-05-07T10:07:15.416Z,42.57
2023-05-07T10:08:15.591Z,42.05
2023-05-07T10:09:15.775Z,40.86
2023-05-07T10:10:15.950Z,40.88
2023-05-07T10:11:16.116Z,41.19
2023-05-07T10:12:16.258Z,41.82
2023-05-07T10:13:16.521Z,42.32
2023-05-07T10:14:16.603Z,42.24
2023-05-07T10:15:16.791Z,42.93
2023-05-07T10:16:16.977Z,42.63
2023-05-07T10:17:17.209Z,42.54
2023-05-07T10:18:17.431Z,43.46
2023-05-07T10:19:17.504Z,44.26
2023-05-07T10:20:17.683Z,42.66
2023-05-07T10:21:17.836Z,42.96
2023-05-07T10:22:18.014Z,43.26
2023-05-07T10:23:18.183Z,43.85
2023-05-07T10:24:18.369Z,44.58
2023-05-07T10:25:18.565Z,42.97
2023-05-07T10:26:18.723Z,43.50
2023-05-07T10:27:18.921Z,44.90
2023-05-07T10:28:19.146Z,45.40
2023-05-07T10:29:19.270Z,45.22
2023-05-07T10:30:19.423Z,45.83
2023-05-07T10:31:19.695Z,45.62
2023-05-07T10:32:19.857Z,46.12
2023-05-07T10:33:20.030Z,44.84
2023-05-07T10:34:20.144Z,44.84
2023-05-07T10:35:20.306Z,46.07
2023-05-07T10:36:20.482Z,46.27
2023-05-07T10:37:20.695Z,46.09
2023-05-07T10:38:20.843Z,46.59
2023-05-07T10:39:20.989Z,47.39
2023-05-07T10:40:21.158Z,46.59
2023-05-07T10:41:21.348Z,47.38
2023-05-07T10:42:21.500Z,47.77
2023-05-07T10:43:21.694Z,47.27
2023-05-07T10:44:21.869Z,47.55
2023-05-07T10:45:22.015Z,48.03
2023-05-07T10:46:22.322Z,46.42
2023-05-07T10:47:22.400Z,46.41
2023-05-07T10:48:30.194Z,46.03
2023-05-07T10:49:24.660Z,44.32
2023-05-07T10:50:22.950Z,44.92
2023-05-07T10:51:23.316Z,44.92
2023-05-07T10:52:23.267Z,45.02
2023-05-07T10:53:23.434Z,44.72
2023-05-07T10:54:23.639Z,45.12
2023-05-07T10:55:23.815Z,44.80
2023-05-07T10:56:24.001Z,43.70
2023-05-07T10:57:24.149Z,44.38
2023-05-07T10:59:24.542Z,43.05
2023-05-07T11:00:35.556Z,43.24
2023-05-07T11:02:25.020Z,42.54
2023-05-07T11:03:25.180Z,43.24
2023-05-07T11:04:25.452Z,42.43
2023-05-07T11:05:25.536Z,42.74
2023-05-07T11:06:25.781Z,42.54
2023-05-07T11:07:25.870Z,43.66
2023-05-07T11:08:26.043Z,43.85
2023-05-07T11:09:26.224Z,43.74
2023-05-07T11:10:26.380Z,42.93
2023-05-07T11:11:26.576Z,44.04
2023-05-07T11:12:26.716Z,43.24
2023-05-07T11:13:26.983Z,43.93
2023-05-07T11:14:27.069Z,44.46
2023-05-07T11:15:27.285Z,43.27
2023-05-07T11:16:27.449Z,43.58
2023-05-07T11:17:27.613Z,43.80
2023-05-07T11:18:27.783Z,43.90
2023-05-07T11:19:27.950Z,43.70
2023-05-07T11:20:28.128Z,46.38
2023-05-07T11:21:28.332Z,44.38
2023-05-07T11:22:28.491Z,44.16
2023-05-07T11:23:28.638Z,43.04
2023-05-07T11:24:28.826Z,43.13
2023-05-07T11:25:29.085Z,42.41
2023-05-07T11:26:29.168Z,42.52
2023-05-07T11:27:29.328Z,43.91
2023-05-07T11:28:29.496Z,44.04
2023-05-07T11:29:29.687Z,43.91
2023-05-07T11:30:29.866Z,43.04
2023-05-07T11:31:30.092Z,43.01
2023-05-07T11:32:30.612Z,44.71
2023-05-07T11:33:30.414Z,45.39
2023-05-07T11:34:30.638Z,42.90
2023-05-07T11:35:30.757Z,44.17
2023-05-07T11:36:30.954Z,41.58
2023-05-07T11:37:31.106Z,42.40
2023-05-07T11:38:31.357Z,44.49
2023-05-07T11:39:31.496Z,43.27
2023-05-07T11:40:31.615Z,43.49
2023-05-07T11:41:31.798Z,41.80
2023-05-07T11:42:31.966Z,42.99
2023-05-07T11:43:32.156Z,41.99
2023-05-07T11:44:32.307Z,42.60
2023-05-07T11:45:32.488Z,42.79
2023-05-07T11:46:32.736Z,43.09
2023-05-07T11:47:32.960Z,43.29
2023-05-07T11:48:33.027Z,41.99
2023-05-07T11:49:33.164Z,42.02
2023-05-07T11:50:33.343Z,43.41
2023-05-07T11:51:33.511Z,42.61
2023-05-07T11:52:33.687Z,42.61
2023-05-07T11:53:33.866Z,43.24
2023-05-07T11:54:34.046Z,42.74
2023-05-07T11:55:34.252Z,42.66
2023-05-07T11:56:34.392Z,43.46
2023-05-07T11:57:34.804Z,43.46
2023-05-07T11:58:34.732Z,44.35
2023-05-07T11:59:34.917Z,42.85
2023-05-07T12:00:35.129Z,42.38
2023-05-07T12:01:35.308Z,43.58
2023-05-07T12:02:35.485Z,43.60
2023-05-07T12:03:36.311Z,43.50
2023-05-07T12:04:35.788Z,44.10
2023-05-07T12:05:35.986Z,45.00
2023-05-07T12:06:36.154Z,42.69
2023-05-07T12:07:36.343Z,44.30
2023-05-07T12:08:36.498Z,42.19
2023-05-07T12:09:36.697Z,42.60
2023-05-07T12:10:36.833Z,42.07
2023-05-07T12:11:37.017Z,43.48
2023-05-07T12:12:37.216Z,43.26
2023-05-07T12:13:37.373Z,42.35
2023-05-07T12:14:37.524Z,42.66
2023-05-07T12:15:37.686Z,42.13
2023-05-07T12:16:37.921Z,43.04
2023-05-07T12:17:38.030Z,43.91
2023-05-07T12:18:38.204Z,41.52
2023-05-07T12:19:38.382Z,40.71
2023-05-07T12:20:38.599Z,40.22
2023-05-07T12:21:38.763Z,40.81
2023-05-07T12:22:38.921Z,41.21
2023-05-07T12:23:39.100Z,40.41
2023-05-07T12:24:39.423Z,41.71
2023-05-07T12:25:39.452Z,41.41
2023-05-07T12:26:39.617Z,40.11
2023-05-07T12:27:39.788Z,40.81
2023-05-07T12:28:40.016Z,41.61
2023-05-07T12:29:40.126Z,39.79
2023-05-07T12:30:40.296Z,40.59
2023-05-07T12:31:40.531Z,38.79
2023-05-07T12:32:40.635Z,39.39
2023-05-07T12:33:40.812Z,39.79
2023-05-07T12:34:45.265Z,41.69
2023-05-07T12:35:41.157Z,40.09
2023-05-07T12:36:41.351Z,41.69
2023-05-07T12:37:41.561Z,41.69
2023-05-07T12:38:41.753Z,40.59
2023-05-07T12:39:41.892Z,40.97
2023-05-07T12:40:42.032Z,40.75
2023-05-07T12:41:42.186Z,39.36
2023-05-07T12:42:42.372Z,38.56
2023-05-07T12:43:42.545Z,39.76
2023-05-07T12:44:42.738Z,38.46
2023-05-07T12:45:42.886Z,40.34
2023-05-07T12:46:43.153Z,39.94
2023-05-07T12:47:43.278Z,39.43
2023-05-07T12:48:43.432Z,40.64
2023-05-07T12:49:43.615Z,39.92
2023-05-07T12:50:43.785Z,39.12
2023-05-07T12:51:43.969Z,38.82
2023-05-07T12:52:44.119Z,38.72
2023-05-07T12:53:44.333Z,36.84
2023-05-07T12:54:44.495Z,37.86
2023-05-07T12:55:44.654Z,37.06
2023-05-07T12:56:44.826Z,37.56